sensor_id;sensor_type;location;lat;lon;timestamp;pressure;altitude;pressure_sealevel;temperature
8362;BMP180;4218;48.326;14.304;2023-04-24T00:01:38;97398.00;;;12.90
8362;BMP180;4218;48.326;14.304;2023-04-24T00:04:05;97406.00;;;13.10
8362;BMP180;4218;48.326;14.304;2023-04-24T00:06:31;97391.00;;;13.00
8362;BMP180;4218;48.326;14.304;2023-04-24T00:09:00;97397.00;;;13.10
8362;BMP180;4218;48.326;14.304;2023-04-24T00:11:26;97388.00;;;13.20
8362;BMP180;4218;48.326;14.304;2023-04-24T00:13:52;97388.00;;;13.10
8362;BMP180;4218;48.326;14.304;2023-04-24T00:16:17;97396.00;;;13.10
8362;BMP180;4218;48.326;14.304;2023-04-24T00:18:43;97399.00;;;13.00
8362;BMP180;4218;48.326;14.304;2023-04-24T00:21:13;97410.00;;;13.00
8362;BMP180;4218;48.326;14.304;2023-04-24T00:23:38;97405.00;;;13.00
8362;BMP180;4218;48.326;14.304;2023-04-24T00:26:04;97402.00;;;13.00
8362;BMP180;4218;48.326;14.304;2023-04-24T00:28:29;97407.00;;;13.10
8362;BMP180;4218;48.326;14.304;2023-04-24T00:30:55;97402.00;;;13.00
8362;BMP180;4218;48.326;14.304;2023-04-24T00:33:20;97401.00;;;13.10
8362;BMP180;4218;48.326;14.304;2023-04-24T00:35:46;97411.00;;;13.10
8362;BMP180;4218;48.326;14.304;2023-04-24T00:38:11;97407.00;;;13.10
8362;BMP180;4218;48.326;14.304;2023-04-24T00:40:37;97413.00;;;13.00
8362;BMP180;4218;48.326;14.304;2023-04-24T00:43:02;97403.00;;;13.00
8362;BMP180;4218;48.326;14.304;2023-04-24T00:45:28;97403.00;;;12.90
8362;BMP180;4218;48.326;14.304;2023-04-24T00:47:53;97410.00;;;12.90
8362;BMP180;4218;48.326;14.304;2023-04-24T00:50:20;97408.00;;;12.90
8362;BMP180;4218;48.326;14.304;2023-04-24T00:52:46;97414.00;;;13.00
8362;BMP180;4218;48.326;14.304;2023-04-24T00:55:12;97399.00;;;12.90
8362;BMP180;4218;48.326;14.304;2023-04-24T00:57:38;97400.00;;;12.90
8362;BMP180;4218;48.326;14.304;2023-04-24T01:00:05;97399.00;;;12.80
8362;BMP180;4218;48.326;14.304;2023-04-24T01:02:38;97388.00;;;12.80
8362;BMP180;4218;48.326;14.304;2023-04-24T01:05:07;97394.00;;;12.80
8362;BMP180;4218;48.326;14.304;2023-04-24T01:07:33;97400.00;;;12.90
8362;BMP180;4218;48.326;14.304;2023-04-24T01:09:59;97407.00;;;12.70
8362;BMP180;4218;48.326;14.304;2023-04-24T01:12:27;97401.00;;;12.70
8362;BMP180;4218;48.326;14.304;2023-04-24T01:14:53;97411.00;;;12.80
8362;BMP180;4218;48.326;14.304;2023-04-24T01:17:19;97404.00;;;12.90
8362;BMP180;4218;48.326;14.304;2023-04-24T01:19:45;97394.00;;;12.80
8362;BMP180;4218;48.326;14.304;2023-04-24T01:22:13;97404.00;;;12.80
8362;BMP180;4218;48.326;14.304;2023-04-24T01:24:39;97406.00;;;12.70
8362;BMP180;4218;48.326;14.304;2023-04-24T01:27:04;97401.00;;;12.60
8362;BMP180;4218;48.326;14.304;2023-04-24T01:29:30;97402.00;;;12.70
8362;BMP180;4218;48.326;14.304;2023-04-24T01:31:55;97413.00;;;12.70
8362;BMP180;4218;48.326;14.304;2023-04-24T01:34:23;97398.00;;;12.70
8362;BMP180;4218;48.326;14.304;2023-04-24T01:36:48;97402.00;;;12.60
8362;BMP180;4218;48.326;14.304;2023-04-24T01:39:14;97410.00;;;12.50
8362;BMP180;4218;48.326;14.304;2023-04-24T01:41:40;97420.00;;;12.50
8362;BMP180;4218;48.326;14.304;2023-04-24T01:44:06;97430.00;;;12.30
8362;BMP180;4218;48.326;14.304;2023-04-24T01:46:32;97424.00;;;12.20
8362;BMP180;4218;48.326;14.304;2023-04-24T01:49:00;97439.00;;;12.10
8362;BMP180;4218;48.326;14.304;2023-04-24T01:51:25;97435.00;;;12.10
8362;BMP180;4218;48.326;14.304;2023-04-24T01:53:51;97429.00;;;12.00
8362;BMP180;4218;48.326;14.304;2023-04-24T01:56:16;97437.00;;;12.00
8362;BMP180;4218;48.326;14.304;2023-04-24T01:58:42;97435.00;;;11.90
8362;BMP180;4218;48.326;14.304;2023-04-24T02:01:08;97428.00;;;11.80
8362;BMP180;4218;48.326;14.304;2023-04-24T02:03:33;97419.00;;;11.70
8362;BMP180;4218;48.326;14.304;2023-04-24T02:05:59;97417.00;;;11.70
8362;BMP180;4218;48.326;14.304;2023-04-24T02:08:25;97417.00;;;11.70
8362;BMP180;4218;48.326;14.304;2023-04-24T02:10:50;97414.00;;;11.60
8362;BMP180;4218;48.326;14.304;2023-04-24T02:13:16;97405.00;;;11.60
8362;BMP180;4218;48.326;14.304;2023-04-24T02:15:41;97406.00;;;11.60
8362;BMP180;4218;48.326;14.304;2023-04-24T02:18:06;97406.00;;;11.50
8362;BMP180;4218;48.326;14.304;2023-04-24T02:20:32;97403.00;;;11.50
8362;BMP180;4218;48.326;14.304;2023-04-24T02:22:59;97408.00;;;11.50
8362;BMP180;4218;48.326;14.304;2023-04-24T02:25:25;97408.00;;;11.40
8362;BMP180;4218;48.326;14.304;2023-04-24T02:27:50;97398.00;;;11.40
8362;BMP180;4218;48.326;14.304;2023-04-24T02:30:16;97397.00;;;11.40
8362;BMP180;4218;48.326;14.304;2023-04-24T02:32:41;97396.00;;;11.30
8362;BMP180;4218;48.326;14.304;2023-04-24T02:35:07;97406.00;;;11.30
8362;BMP180;4218;48.326;14.304;2023-04-24T02:37:32;97388.00;;;11.30
8362;BMP180;4218;48.326;14.304;2023-04-24T02:39:58;97393.00;;;11.40
8362;BMP180;4218;48.326;14.304;2023-04-24T02:42:23;97394.00;;;11.40
8362;BMP180;4218;48.326;14.304;2023-04-24T02:44:48;97392.00;;;11.30
8362;BMP180;4218;48.326;14.304;2023-04-24T02:47:15;97404.00;;;11.20
8362;BMP180;4218;48.326;14.304;2023-04-24T02:49:41;97404.00;;;11.30
8362;BMP180;4218;48.326;14.304;2023-04-24T02:52:07;97396.00;;;11.30
8362;BMP180;4218;48.326;14.304;2023-04-24T02:54:32;97398.00;;;11.10
8362;BMP180;4218;48.326;14.304;2023-04-24T02:56:57;97393.00;;;11.10
8362;BMP180;4218;48.326;14.304;2023-04-24T02:59:23;97395.00;;;11.10
8362;BMP180;4218;48.326;14.304;2023-04-24T03:01:48;97395.00;;;11.10
8362;BMP180;4218;48.326;14.304;2023-04-24T03:04:14;97394.00;;;11.00
8362;BMP180;4218;48.326;14.304;2023-04-24T03:06:40;97396.00;;;11.00
8362;BMP180;4218;48.326;14.304;2023-04-24T03:09:06;97384.00;;;11.10
8362;BMP180;4218;48.326;14.304;2023-04-24T03:11:31;97377.00;;;11.10
8362;BMP180;4218;48.326;14.304;2023-04-24T03:13:56;97387.00;;;11.00
8362;BMP180;4218;48.326;14.304;2023-04-24T03:16:22;97388.00;;;11.10
8362;BMP180;4218;48.326;14.304;2023-04-24T03:18:47;97378.00;;;10.90
8362;BMP180;4218;48.326;14.304;2023-04-24T03:21:13;97375.00;;;10.90
8362;BMP180;4218;48.326;14.304;2023-04-24T03:23:38;97375.00;;;10.90
8362;BMP180;4218;48.326;14.304;2023-04-24T03:26:03;97387.00;;;10.90
8362;BMP180;4218;48.326;14.304;2023-04-24T03:28:29;97383.00;;;10.80
8362;BMP180;4218;48.326;14.304;2023-04-24T03:30:54;97379.00;;;10.80
8362;BMP180;4218;48.326;14.304;2023-04-24T03:33:20;97375.00;;;10.80
8362;BMP180;4218;48.326;14.304;2023-04-24T03:35:45;97374.00;;;10.80
8362;BMP180;4218;48.326;14.304;2023-04-24T03:38:10;97381.00;;;10.80
8362;BMP180;4218;48.326;14.304;2023-04-24T03:40:36;97381.00;;;10.80
8362;BMP180;4218;48.326;14.304;2023-04-24T03:43:01;97379.00;;;10.80
8362;BMP180;4218;48.326;14.304;2023-04-24T03:45:27;97380.00;;;10.80
8362;BMP180;4218;48.326;14.304;2023-04-24T03:47:52;97381.00;;;10.80
8362;BMP180;4218;48.326;14.304;2023-04-24T03:50:18;97388.00;;;10.80
8362;BMP180;4218;48.326;14.304;2023-04-24T03:52:43;97396.00;;;10.90
8362;BMP180;4218;48.326;14.304;2023-04-24T03:55:09;97384.00;;;10.80
8362;BMP180;4218;48.326;14.304;2023-04-24T03:57:39;97396.00;;;10.90
8362;BMP180;4218;48.326;14.304;2023-04-24T04:00:05;97401.00;;;10.90
8362;BMP180;4218;48.326;14.304;2023-04-24T04:02:31;97394.00;;;10.80
8362;BMP180;4218;48.326;14.304;2023-04-24T04:04:56;97402.00;;;10.90
8362;BMP180;4218;48.326;14.304;2023-04-24T04:07:22;97403.00;;;10.90
8362;BMP180;4218;48.326;14.304;2023-04-24T04:09:47;97397.00;;;10.90
8362;BMP180;4218;48.326;14.304;2023-04-24T04:12:12;97402.00;;;11.00
8362;BMP180;4218;48.326;14.304;2023-04-24T04:14:38;97402.00;;;10.90
8362;BMP180;4218;48.326;14.304;2023-04-24T04:17:03;97410.00;;;11.00
8362;BMP180;4218;48.326;14.304;2023-04-24T04:19:29;97418.00;;;11.00
8362;BMP180;4218;48.326;14.304;2023-04-24T04:21:54;97404.00;;;11.00
8362;BMP180;4218;48.326;14.304;2023-04-24T04:24:21;97410.00;;;11.10
8362;BMP180;4218;48.326;14.304;2023-04-24T04:26:49;97417.00;;;11.00
8362;BMP180;4218;48.326;14.304;2023-04-24T04:29:16;97413.00;;;11.00
8362;BMP180;4218;48.326;14.304;2023-04-24T04:31:43;97414.00;;;11.00
8362;BMP180;4218;48.326;14.304;2023-04-24T04:34:09;97403.00;;;11.10
8362;BMP180;4218;48.326;14.304;2023-04-24T04:36:34;97415.00;;;11.10
8362;BMP180;4218;48.326;14.304;2023-04-24T04:39:02;97410.00;;;11.00
8362;BMP180;4218;48.326;14.304;2023-04-24T04:41:28;97415.00;;;11.10
8362;BMP180;4218;48.326;14.304;2023-04-24T04:43:53;97412.00;;;11.00
8362;BMP180;4218;48.326;14.304;2023-04-24T04:46:19;97419.00;;;11.00
8362;BMP180;4218;48.326;14.304;2023-04-24T04:48:44;97413.00;;;11.10
8362;BMP180;4218;48.326;14.304;2023-04-24T04:51:11;97410.00;;;11.10
8362;BMP180;4218;48.326;14.304;2023-04-24T04:53:36;97410.00;;;11.10
8362;BMP180;4218;48.326;14.304;2023-04-24T04:56:01;97416.00;;;11.10
8362;BMP180;4218;48.326;14.304;2023-04-24T04:58:27;97422.00;;;11.10
8362;BMP180;4218;48.326;14.304;2023-04-24T05:00:52;97418.00;;;11.10
8362;BMP180;4218;48.326;14.304;2023-04-24T05:03:19;97422.00;;;11.20
8362;BMP180;4218;48.326;14.304;2023-04-24T05:05:45;97425.00;;;11.10
8362;BMP180;4218;48.326;14.304;2023-04-24T05:08:10;97421.00;;;11.30
8362;BMP180;4218;48.326;14.304;2023-04-24T05:10:37;97433.00;;;11.20
8362;BMP180;4218;48.326;14.304;2023-04-24T05:13:03;97431.00;;;11.20
8362;BMP180;4218;48.326;14.304;2023-04-24T05:15:29;97423.00;;;11.20
8362;BMP180;4218;48.326;14.304;2023-04-24T05:17:55;97430.00;;;11.20
8362;BMP180;4218;48.326;14.304;2023-04-24T05:20:21;97431.00;;;11.10
8362;BMP180;4218;48.326;14.304;2023-04-24T05:22:46;97440.00;;;11.00
8362;BMP180;4218;48.326;14.304;2023-04-24T05:25:11;97447.00;;;11.00
8362;BMP180;4218;48.326;14.304;2023-04-24T05:27:38;97435.00;;;11.00
8362;BMP180;4218;48.326;14.304;2023-04-24T05:30:04;97431.00;;;10.90
8362;BMP180;4218;48.326;14.304;2023-04-24T05:32:29;97440.00;;;10.90
8362;BMP180;4218;48.326;14.304;2023-04-24T05:34:55;97439.00;;;10.90
8362;BMP180;4218;48.326;14.304;2023-04-24T05:37:20;97446.00;;;10.90
8362;BMP180;4218;48.326;14.304;2023-04-24T05:39:46;97438.00;;;10.90
8362;BMP180;4218;48.326;14.304;2023-04-24T05:42:11;97452.00;;;10.80
8362;BMP180;4218;48.326;14.304;2023-04-24T05:44:36;97448.00;;;10.70
8362;BMP180;4218;48.326;14.304;2023-04-24T05:47:02;97441.00;;;10.70
8362;BMP180;4218;48.326;14.304;2023-04-24T05:49:27;97447.00;;;10.70
8362;BMP180;4218;48.326;14.304;2023-04-24T05:51:53;97444.00;;;10.70
8362;BMP180;4218;48.326;14.304;2023-04-24T05:54:18;97455.00;;;10.70
8362;BMP180;4218;48.326;14.304;2023-04-24T05:56:50;97457.00;;;10.70
8362;BMP180;4218;48.326;14.304;2023-04-24T06:07:25;97456.00;;;10.60
8362;BMP180;4218;48.326;14.304;2023-04-24T06:09:54;97463.00;;;10.50
8362;BMP180;4218;48.326;14.304;2023-04-24T06:12:19;97469.00;;;10.50
8362;BMP180;4218;48.326;14.304;2023-04-24T06:14:46;97465.00;;;10.50
8362;BMP180;4218;48.326;14.304;2023-04-24T06:17:12;97464.00;;;10.40
8362;BMP180;4218;48.326;14.304;2023-04-24T06:19:39;97463.00;;;10.30
8362;BMP180;4218;48.326;14.304;2023-04-24T06:22:04;97468.00;;;10.30
8362;BMP180;4218;48.326;14.304;2023-04-24T06:24:29;97462.00;;;10.30
8362;BMP180;4218;48.326;14.304;2023-04-24T06:26:55;97469.00;;;10.20
8362;BMP180;4218;48.326;14.304;2023-04-24T06:29:22;97466.00;;;10.20
8362;BMP180;4218;48.326;14.304;2023-04-24T06:31:47;97468.00;;;10.20
8362;BMP180;4218;48.326;14.304;2023-04-24T06:34:13;97464.00;;;10.30
8362;BMP180;4218;48.326;14.304;2023-04-24T06:36:38;97462.00;;;10.30
8362;BMP180;4218;48.326;14.304;2023-04-24T06:39:03;97471.00;;;10.30
8362;BMP180;4218;48.326;14.304;2023-04-24T06:41:29;97475.00;;;10.20
8362;BMP180;4218;48.326;14.304;2023-04-24T06:43:55;97479.00;;;10.20
8362;BMP180;4218;48.326;14.304;2023-04-24T06:46:20;97468.00;;;10.20
8362;BMP180;4218;48.326;14.304;2023-04-24T06:48:49;97478.00;;;10.20
8362;BMP180;4218;48.326;14.304;2023-04-24T06:51:15;97477.00;;;10.20
8362;BMP180;4218;48.326;14.304;2023-04-24T06:53:40;97474.00;;;10.20
8362;BMP180;4218;48.326;14.304;2023-04-24T06:56:05;97479.00;;;10.30
8362;BMP180;4218;48.326;14.304;2023-04-24T06:58:31;97480.00;;;10.30
8362;BMP180;4218;48.326;14.304;2023-04-24T07:00:56;97498.00;;;10.30
8362;BMP180;4218;48.326;14.304;2023-04-24T07:03:21;97486.00;;;10.30
8362;BMP180;4218;48.326;14.304;2023-04-24T07:05:48;97480.00;;;10.40
8362;BMP180;4218;48.326;14.304;2023-04-24T07:08:15;97485.00;;;10.40
8362;BMP180;4218;48.326;14.304;2023-04-24T07:10:43;97495.00;;;10.50
8362;BMP180;4218;48.326;14.304;2023-04-24T07:13:08;97492.00;;;10.50
8362;BMP180;4218;48.326;14.304;2023-04-24T07:15:35;97495.00;;;10.40
8362;BMP180;4218;48.326;14.304;2023-04-24T07:18:01;97492.00;;;10.50
8362;BMP180;4218;48.326;14.304;2023-04-24T07:20:26;97499.00;;;10.40
8362;BMP180;4218;48.326;14.304;2023-04-24T07:22:51;97490.00;;;10.40
8362;BMP180;4218;48.326;14.304;2023-04-24T07:25:19;97496.00;;;10.40
8362;BMP180;4218;48.326;14.304;2023-04-24T07:27:45;97502.00;;;10.50
8362;BMP180;4218;48.326;14.304;2023-04-24T07:30:10;97492.00;;;10.60
8362;BMP180;4218;48.326;14.304;2023-04-24T07:32:36;97495.00;;;10.60
8362;BMP180;4218;48.326;14.304;2023-04-24T07:35:02;97487.00;;;10.60
8362;BMP180;4218;48.326;14.304;2023-04-24T07:37:28;97495.00;;;10.70
8362;BMP180;4218;48.326;14.304;2023-04-24T07:39:54;97492.00;;;10.70
8362;BMP180;4218;48.326;14.304;2023-04-24T07:42:19;97500.00;;;10.80
8362;BMP180;4218;48.326;14.304;2023-04-24T07:44:45;97498.00;;;10.80
8362;BMP180;4218;48.326;14.304;2023-04-24T07:47:12;97496.00;;;10.80
8362;BMP180;4218;48.326;14.304;2023-04-24T07:49:41;97502.00;;;10.80
8362;BMP180;4218;48.326;14.304;2023-04-24T07:52:08;97503.00;;;10.90
8362;BMP180;4218;48.326;14.304;2023-04-24T07:54:33;97512.00;;;10.80
8362;BMP180;4218;48.326;14.304;2023-04-24T07:56:59;97512.00;;;10.80
8362;BMP180;4218;48.326;14.304;2023-04-24T07:59:25;97512.00;;;10.80
8362;BMP180;4218;48.326;14.304;2023-04-24T08:01:50;97510.00;;;10.80
8362;BMP180;4218;48.326;14.304;2023-04-24T08:04:16;97519.00;;;10.90
8362;BMP180;4218;48.326;14.304;2023-04-24T08:06:43;97521.00;;;10.80
8362;BMP180;4218;48.326;14.304;2023-04-24T08:09:09;97515.00;;;10.70
8362;BMP180;4218;48.326;14.304;2023-04-24T08:11:35;97515.00;;;10.80
8362;BMP180;4218;48.326;14.304;2023-04-24T08:14:00;97525.00;;;10.80
8362;BMP180;4218;48.326;14.304;2023-04-24T08:16:26;97514.00;;;10.90
8362;BMP180;4218;48.326;14.304;2023-04-24T08:18:52;97528.00;;;11.00
8362;BMP180;4218;48.326;14.304;2023-04-24T08:21:18;97524.00;;;10.90
8362;BMP180;4218;48.326;14.304;2023-04-24T08:23:44;97529.00;;;10.90
8362;BMP180;4218;48.326;14.304;2023-04-24T08:26:10;97530.00;;;11.00
8362;BMP180;4218;48.326;14.304;2023-04-24T08:28:36;97528.00;;;11.00
8362;BMP180;4218;48.326;14.304;2023-04-24T08:31:02;97524.00;;;11.00
8362;BMP180;4218;48.326;14.304;2023-04-24T08:33:27;97535.00;;;11.10
8362;BMP180;4218;48.326;14.304;2023-04-24T08:35:59;97537.00;;;11.10
8362;BMP180;4218;48.326;14.304;2023-04-24T08:38:25;97540.00;;;11.00
8362;BMP180;4218;48.326;14.304;2023-04-24T08:40:51;97534.00;;;11.20
8362;BMP180;4218;48.326;14.304;2023-04-24T08:43:16;97537.00;;;11.20
8362;BMP180;4218;48.326;14.304;2023-04-24T08:45:42;97536.00;;;11.20
8362;BMP180;4218;48.326;14.304;2023-04-24T08:48:08;97531.00;;;11.10
8362;BMP180;4218;48.326;14.304;2023-04-24T08:50:34;97542.00;;;11.20
8362;BMP180;4218;48.326;14.304;2023-04-24T08:53:02;97542.00;;;11.10
8362;BMP180;4218;48.326;14.304;2023-04-24T08:55:29;97529.00;;;11.20
8362;BMP180;4218;48.326;14.304;2023-04-24T08:57:56;97535.00;;;11.20
8362;BMP180;4218;48.326;14.304;2023-04-24T09:00:22;97550.00;;;11.20
8362;BMP180;4218;48.326;14.304;2023-04-24T09:02:53;97544.00;;;11.30
8362;BMP180;4218;48.326;14.304;2023-04-24T09:05:20;97551.00;;;11.40
8362;BMP180;4218;48.326;14.304;2023-04-24T09:07:49;97539.00;;;11.50
8362;BMP180;4218;48.326;14.304;2023-04-24T09:10:18;97543.00;;;11.40
8362;BMP180;4218;48.326;14.304;2023-04-24T09:12:44;97552.00;;;11.50
8362;BMP180;4218;48.326;14.304;2023-04-24T09:15:11;97538.00;;;11.60
8362;BMP180;4218;48.326;14.304;2023-04-24T09:17:38;97541.00;;;11.70
8362;BMP180;4218;48.326;14.304;2023-04-24T09:20:04;97536.00;;;11.70
8362;BMP180;4218;48.326;14.304;2023-04-24T09:22:30;97539.00;;;11.70
8362;BMP180;4218;48.326;14.304;2023-04-24T09:25:07;97531.00;;;11.50
8362;BMP180;4218;48.326;14.304;2023-04-24T09:27:33;97548.00;;;11.60
8362;BMP180;4218;48.326;14.304;2023-04-24T09:29:59;97559.00;;;11.60
8362;BMP180;4218;48.326;14.304;2023-04-24T09:32:26;97542.00;;;11.50
8362;BMP180;4218;48.326;14.304;2023-04-24T09:35:12;97541.00;;;11.40
8362;BMP180;4218;48.326;14.304;2023-04-24T09:37:43;97557.00;;;11.50
8362;BMP180;4218;48.326;14.304;2023-04-24T09:40:15;97551.00;;;11.50
8362;BMP180;4218;48.326;14.304;2023-04-24T09:42:46;97546.00;;;11.40
8362;BMP180;4218;48.326;14.304;2023-04-24T09:45:12;97557.00;;;11.50
8362;BMP180;4218;48.326;14.304;2023-04-24T09:47:38;97551.00;;;11.60
8362;BMP180;4218;48.326;14.304;2023-04-24T09:52:40;97542.00;;;11.70
8362;BMP180;4218;48.326;14.304;2023-04-24T09:55:18;97553.00;;;11.80
8362;BMP180;4218;48.326;14.304;2023-04-24T09:57:48;97550.00;;;11.80
8362;BMP180;4218;48.326;14.304;2023-04-24T10:00:35;97539.00;;;12.10
8362;BMP180;4218;48.326;14.304;2023-04-24T10:03:03;97546.00;;;12.20
8362;BMP180;4218;48.326;14.304;2023-04-24T10:05:30;97549.00;;;12.20
8362;BMP180;4218;48.326;14.304;2023-04-24T10:08:02;97545.00;;;12.20
8362;BMP180;4218;48.326;14.304;2023-04-24T10:10:28;97550.00;;;12.20
8362;BMP180;4218;48.326;14.304;2023-04-24T10:12:55;97548.00;;;12.20
8362;BMP180;4218;48.326;14.304;2023-04-24T10:15:20;97538.00;;;12.20
8362;BMP180;4218;48.326;14.304;2023-04-24T10:17:50;97551.00;;;12.20
8362;BMP180;4218;48.326;14.304;2023-04-24T10:20:23;97539.00;;;12.30
8362;BMP180;4218;48.326;14.304;2023-04-24T10:22:51;97536.00;;;12.30
8362;BMP180;4218;48.326;14.304;2023-04-24T10:25:22;97542.00;;;12.20
8362;BMP180;4218;48.326;14.304;2023-04-24T10:27:49;97544.00;;;12.20
8362;BMP180;4218;48.326;14.304;2023-04-24T10:30:15;97534.00;;;12.20
8362;BMP180;4218;48.326;14.304;2023-04-24T10:32:40;97532.00;;;12.20
8362;BMP180;4218;48.326;14.304;2023-04-24T10:35:07;97546.00;;;12.30
8362;BMP180;4218;48.326;14.304;2023-04-24T10:37:47;97535.00;;;12.30
8362;BMP180;4218;48.326;14.304;2023-04-24T10:40:18;97548.00;;;12.20
8362;BMP180;4218;48.326;14.304;2023-04-24T10:42:47;97548.00;;;12.30
8362;BMP180;4218;48.326;14.304;2023-04-24T10:45:18;97534.00;;;12.20
8362;BMP180;4218;48.326;14.304;2023-04-24T10:48:01;97542.00;;;12.20
8362;BMP180;4218;48.326;14.304;2023-04-24T10:50:28;97541.00;;;12.30
8362;BMP180;4218;48.326;14.304;2023-04-24T10:53:05;97534.00;;;12.40
8362;BMP180;4218;48.326;14.304;2023-04-24T10:55:57;97528.00;;;12.70
8362;BMP180;4218;48.326;14.304;2023-04-24T10:58:23;97522.00;;;12.80
8362;BMP180;4218;48.326;14.304;2023-04-24T11:00:59;97527.00;;;13.00
8362;BMP180;4218;48.326;14.304;2023-04-24T11:03:32;97501.00;;;13.20
8362;BMP180;4218;48.326;14.304;2023-04-24T11:06:08;97518.00;;;13.60
8362;BMP180;4218;48.326;14.304;2023-04-24T11:08:47;97504.00;;;13.60
8362;BMP180;4218;48.326;14.304;2023-04-24T11:11:18;97509.00;;;13.80
8362;BMP180;4218;48.326;14.304;2023-04-24T11:14:01;97500.00;;;13.90
8362;BMP180;4218;48.326;14.304;2023-04-24T11:16:35;97513.00;;;13.70
8362;BMP180;4218;48.326;14.304;2023-04-24T11:19:36;97517.00;;;13.70
8362;BMP180;4218;48.326;14.304;2023-04-24T11:21:57;97509.00;;;13.90
8362;BMP180;4218;48.326;14.304;2023-04-24T11:26:53;97505.00;;;14.30
8362;BMP180;4218;48.326;14.304;2023-04-24T11:29:19;97511.00;;;14.40
8362;BMP180;4218;48.326;14.304;2023-04-24T11:31:45;97493.00;;;14.50
8362;BMP180;4218;48.326;14.304;2023-04-24T11:34:15;97498.00;;;14.80
8362;BMP180;4218;48.326;14.304;2023-04-24T11:36:47;97493.00;;;14.80
8362;BMP180;4218;48.326;14.304;2023-04-24T11:39:14;97502.00;;;14.60
8362;BMP180;4218;48.326;14.304;2023-04-24T11:41:39;97500.00;;;14.50
8362;BMP180;4218;48.326;14.304;2023-04-24T11:44:09;97501.00;;;14.20
8362;BMP180;4218;48.326;14.304;2023-04-24T11:46:35;97514.00;;;13.80
8362;BMP180;4218;48.326;14.304;2023-04-24T11:49:03;97525.00;;;13.30
8362;BMP180;4218;48.326;14.304;2023-04-24T11:51:28;97527.00;;;12.60
8362;BMP180;4218;48.326;14.304;2023-04-24T11:53:55;97512.00;;;12.20
8362;BMP180;4218;48.326;14.304;2023-04-24T11:56:24;97521.00;;;11.90
8362;BMP180;4218;48.326;14.304;2023-04-24T11:58:53;97517.00;;;11.60
8362;BMP180;4218;48.326;14.304;2023-04-24T12:01:20;97512.00;;;11.40
8362;BMP180;4218;48.326;14.304;2023-04-24T12:03:50;97529.00;;;11.50
8362;BMP180;4218;48.326;14.304;2023-04-24T12:06:16;97521.00;;;11.70
8362;BMP180;4218;48.326;14.304;2023-04-24T12:08:41;97513.00;;;11.80
8362;BMP180;4218;48.326;14.304;2023-04-24T12:11:10;97518.00;;;11.90
8362;BMP180;4218;48.326;14.304;2023-04-24T12:13:37;97523.00;;;11.90
8362;BMP180;4218;48.326;14.304;2023-04-24T12:16:03;97511.00;;;12.00
8362;BMP180;4218;48.326;14.304;2023-04-24T12:18:30;97528.00;;;12.10
8362;BMP180;4218;48.326;14.304;2023-04-24T12:20:55;97531.00;;;12.10
8362;BMP180;4218;48.326;14.304;2023-04-24T12:23:43;97533.00;;;12.00
8362;BMP180;4218;48.326;14.304;2023-04-24T12:26:08;97530.00;;;11.90
8362;BMP180;4218;48.326;14.304;2023-04-24T12:28:35;97539.00;;;11.90
8362;BMP180;4218;48.326;14.304;2023-04-24T12:31:01;97559.00;;;11.70
8362;BMP180;4218;48.326;14.304;2023-04-24T12:33:27;97554.00;;;11.40
8362;BMP180;4218;48.326;14.304;2023-04-24T12:35:54;97553.00;;;11.10
8362;BMP180;4218;48.326;14.304;2023-04-24T12:38:25;97546.00;;;10.90
8362;BMP180;4218;48.326;14.304;2023-04-24T12:41:12;97551.00;;;10.90
8362;BMP180;4218;48.326;14.304;2023-04-24T12:43:37;97538.00;;;10.70
8362;BMP180;4218;48.326;14.304;2023-04-24T12:46:04;97552.00;;;10.70
8362;BMP180;4218;48.326;14.304;2023-04-24T12:48:30;97552.00;;;10.70
8362;BMP180;4218;48.326;14.304;2023-04-24T12:50:59;97561.00;;;10.80
8362;BMP180;4218;48.326;14.304;2023-04-24T12:53:28;97567.00;;;10.90
8362;BMP180;4218;48.326;14.304;2023-04-24T12:55:57;97554.00;;;10.90
8362;BMP180;4218;48.326;14.304;2023-04-24T12:58:25;97561.00;;;10.70
8362;BMP180;4218;48.326;14.304;2023-04-24T13:00:51;97553.00;;;10.60
8362;BMP180;4218;48.326;14.304;2023-04-24T13:03:17;97554.00;;;10.70
8362;BMP180;4218;48.326;14.304;2023-04-24T13:05:43;97559.00;;;10.80
8362;BMP180;4218;48.326;14.304;2023-04-24T13:08:09;97555.00;;;10.90
8362;BMP180;4218;48.326;14.304;2023-04-24T13:10:35;97552.00;;;10.90
8362;BMP180;4218;48.326;14.304;2023-04-24T13:13:00;97551.00;;;11.00
8362;BMP180;4218;48.326;14.304;2023-04-24T13:15:25;97560.00;;;11.10
8362;BMP180;4218;48.326;14.304;2023-04-24T13:17:51;97551.00;;;11.20
8362;BMP180;4218;48.326;14.304;2023-04-24T13:20:17;97566.00;;;11.40
8362;BMP180;4218;48.326;14.304;2023-04-24T13:22:43;97562.00;;;11.50
8362;BMP180;4218;48.326;14.304;2023-04-24T13:25:08;97566.00;;;11.60
8362;BMP180;4218;48.326;14.304;2023-04-24T13:27:34;97572.00;;;11.80
8362;BMP180;4218;48.326;14.304;2023-04-24T13:30:01;97564.00;;;12.00
8362;BMP180;4218;48.326;14.304;2023-04-24T13:32:26;97549.00;;;12.10
8362;BMP180;4218;48.326;14.304;2023-04-24T13:34:52;97548.00;;;12.20
8362;BMP180;4218;48.326;14.304;2023-04-24T13:37:18;97558.00;;;12.30
8362;BMP180;4218;48.326;14.304;2023-04-24T13:39:46;97550.00;;;12.40
8362;BMP180;4218;48.326;14.304;2023-04-24T13:42:11;97556.00;;;12.50
8362;BMP180;4218;48.326;14.304;2023-04-24T13:44:37;97542.00;;;12.60
8362;BMP180;4218;48.326;14.304;2023-04-24T13:47:03;97549.00;;;12.50
8362;BMP180;4218;48.326;14.304;2023-04-24T13:49:28;97549.00;;;12.50
8362;BMP180;4218;48.326;14.304;2023-04-24T13:51:55;97550.00;;;12.40
8362;BMP180;4218;48.326;14.304;2023-04-24T13:54:21;97553.00;;;12.50
8362;BMP180;4218;48.326;14.304;2023-04-24T13:56:48;97538.00;;;12.50
8362;BMP180;4218;48.326;14.304;2023-04-24T13:59:13;97545.00;;;12.70
8362;BMP180;4218;48.326;14.304;2023-04-24T14:01:39;97548.00;;;12.80
8362;BMP180;4218;48.326;14.304;2023-04-24T14:04:04;97551.00;;;12.70
8362;BMP180;4218;48.326;14.304;2023-04-24T14:06:30;97546.00;;;12.90
8362;BMP180;4218;48.326;14.304;2023-04-24T14:08:56;97549.00;;;12.80
8362;BMP180;4218;48.326;14.304;2023-04-24T14:11:21;97543.00;;;12.90
8362;BMP180;4218;48.326;14.304;2023-04-24T14:13:47;97538.00;;;13.00
8362;BMP180;4218;48.326;14.304;2023-04-24T14:16:16;97532.00;;;13.10
8362;BMP180;4218;48.326;14.304;2023-04-24T14:18:41;97536.00;;;13.20
8362;BMP180;4218;48.326;14.304;2023-04-24T14:21:07;97537.00;;;13.10
8362;BMP180;4218;48.326;14.304;2023-04-24T14:23:32;97551.00;;;13.00
8362;BMP180;4218;48.326;14.304;2023-04-24T14:25:58;97536.00;;;13.10
8362;BMP180;4218;48.326;14.304;2023-04-24T14:28:24;97541.00;;;13.10
8362;BMP180;4218;48.326;14.304;2023-04-24T14:30:50;97533.00;;;13.00
8362;BMP180;4218;48.326;14.304;2023-04-24T14:33:16;97535.00;;;13.10